sensor_id;sensor_type;location;lat;lon;timestamp;P1;durP1;ratioP1;P2;durP2;ratioP2
18249;SDS011;27980;52.126;5.572;2024-01-27T00:00:11;14.32;;;3.50;;
18249;SDS011;27980;52.126;5.572;2024-01-27T00:02:39;14.20;;;2.70;;
18249;SDS011;27980;52.126;5.572;2024-01-27T00:05:07;9.85;;;3.03;;
18249;SDS011;27980;52.126;5.572;2024-01-27T00:07:33;14.88;;;3.42;;
18249;SDS011;27980;52.126;5.572;2024-01-27T00:10:01;9.48;;;2.92;;
18249;SDS011;27980;52.126;5.572;2024-01-27T00:12:27;11.82;;;3.97;;
18249;SDS011;27980;52.126;5.572;2024-01-27T00:14:54;11.18;;;2.80;;
18249;SDS011;27980;52.126;5.572;2024-01-27T00:17:20;10.02;;;2.72;;
18249;SDS011;27980;52.126;5.572;2024-01-27T00:19:49;7.25;;;2.60;;
18249;SDS011;27980;52.126;5.572;2024-01-27T00:22:17;16.08;;;3.00;;
18249;SDS011;27980;52.126;5.572;2024-01-27T00:24:43;9.98;;;3.17;;
18249;SDS011;27980;52.126;5.572;2024-01-27T00:27:10;15.50;;;2.80;;
18249;SDS011;27980;52.126;5.572;2024-01-27T00:29:36;11.75;;;3.20;;
18249;SDS011;27980;52.126;5.572;2024-01-27T00:32:03;12.45;;;2.70;;
18249;SDS011;27980;52.126;5.572;2024-01-27T00:34:29;7.07;;;2.30;;
18249;SDS011;27980;52.126;5.572;2024-01-27T00:36:56;12.52;;;3.08;;
18249;SDS011;27980;52.126;5.572;2024-01-27T00:39:24;10.95;;;2.55;;
18249;SDS011;27980;52.126;5.572;2024-01-27T00:41:51;15.40;;;3.40;;
18249;SDS011;27980;52.126;5.572;2024-01-27T00:44:17;11.52;;;3.38;;
18249;SDS011;27980;52.126;5.572;2024-01-27T00:46:44;13.30;;;2.75;;
18249;SDS011;27980;52.126;5.572;2024-01-27T00:49:10;8.32;;;2.75;;
18249;SDS011;27980;52.126;5.572;2024-01-27T00:51:36;7.43;;;2.80;;
18249;SDS011;27980;52.126;5.572;2024-01-27T00:54:03;10.00;;;2.35;;
18249;SDS011;27980;52.126;5.572;2024-01-27T00:56:31;19.00;;;3.15;;
18249;SDS011;27980;52.126;5.572;2024-01-27T00:58:57;12.95;;;3.13;;
18249;SDS011;27980;52.126;5.572;2024-01-27T01:01:25;8.20;;;2.88;;
18249;SDS011;27980;52.126;5.572;2024-01-27T01:03:52;14.20;;;2.85;;
18249;SDS011;27980;52.126;5.572;2024-01-27T01:06:18;12.98;;;2.75;;
18249;SDS011;27980;52.126;5.572;2024-01-27T01:08:44;11.02;;;2.33;;
18249;SDS011;27980;52.126;5.572;2024-01-27T01:11:11;24.80;;;3.72;;
18249;SDS011;27980;52.126;5.572;2024-01-27T01:13:39;10.10;;;2.72;;
18249;SDS011;27980;52.126;5.572;2024-01-27T01:16:05;16.05;;;3.20;;
18249;SDS011;27980;52.126;5.572;2024-01-27T01:18:33;23.52;;;3.17;;
18249;SDS011;27980;52.126;5.572;2024-01-27T01:20:59;16.17;;;2.97;;
18249;SDS011;27980;52.126;5.572;2024-01-27T01:23:25;11.23;;;3.45;;
18249;SDS011;27980;52.126;5.572;2024-01-27T01:25:52;8.13;;;2.40;;
18249;SDS011;27980;52.126;5.572;2024-01-27T01:28:18;8.65;;;2.40;;
18249;SDS011;27980;52.126;5.572;2024-01-27T01:30:46;10.75;;;3.20;;
18249;SDS011;27980;52.126;5.572;2024-01-27T01:33:12;13.88;;;2.92;;
18249;SDS011;27980;52.126;5.572;2024-01-27T01:35:39;15.18;;;3.58;;
18249;SDS011;27980;52.126;5.572;2024-01-27T01:38:05;14.00;;;2.22;;
18249;SDS011;27980;52.126;5.572;2024-01-27T01:40:31;15.48;;;3.30;;
18249;SDS011;27980;52.126;5.572;2024-01-27T01:42:58;11.80;;;2.05;;
18249;SDS011;27980;52.126;5.572;2024-01-27T01:45:25;11.07;;;2.67;;
18249;SDS011;27980;52.126;5.572;2024-01-27T01:47:52;7.75;;;2.35;;
18249;SDS011;27980;52.126;5.572;2024-01-27T01:50:19;7.05;;;2.25;;
18249;SDS011;27980;52.126;5.572;2024-01-27T01:52:46;10.30;;;2.60;;
18249;SDS011;27980;52.126;5.572;2024-01-27T01:55:13;9.50;;;2.75;;
18249;SDS011;27980;52.126;5.572;2024-01-27T01:57:41;14.68;;;2.78;;
18249;SDS011;27980;52.126;5.572;2024-01-27T02:00:09;9.77;;;2.95;;
18249;SDS011;27980;52.126;5.572;2024-01-27T02:02:36;8.50;;;2.05;;
18249;SDS011;27980;52.126;5.572;2024-01-27T02:05:04;11.90;;;3.00;;
18249;SDS011;27980;52.126;5.572;2024-01-27T02:07:30;10.90;;;2.88;;
18249;SDS011;27980;52.126;5.572;2024-01-27T02:09:57;11.68;;;2.60;;
18249;SDS011;27980;52.126;5.572;2024-01-27T02:12:23;9.70;;;1.98;;
18249;SDS011;27980;52.126;5.572;2024-01-27T02:14:50;11.65;;;2.67;;
18249;SDS011;27980;52.126;5.572;2024-01-27T02:17:16;7.47;;;2.03;;
18249;SDS011;27980;52.126;5.572;2024-01-27T02:19:42;11.38;;;2.63;;
18249;SDS011;27980;52.126;5.572;2024-01-27T02:22:10;5.68;;;2.10;;
18249;SDS011;27980;52.126;5.572;2024-01-27T02:24:38;8.43;;;2.40;;
18249;SDS011;27980;52.126;5.572;2024-01-27T02:27:04;18.55;;;3.08;;
18249;SDS011;27980;52.126;5.572;2024-01-27T02:29:31;10.45;;;2.92;;
18249;SDS011;27980;52.126;5.572;2024-01-27T02:31:57;9.85;;;2.40;;
18249;SDS011;27980;52.126;5.572;2024-01-27T02:34:24;4.88;;;2.63;;
18249;SDS011;27980;52.126;5.572;2024-01-27T02:36:50;9.32;;;2.80;;
18249;SDS011;27980;52.126;5.572;2024-01-27T02:39:17;10.73;;;2.85;;
18249;SDS011;27980;52.126;5.572;2024-01-27T02:41:44;12.52;;;2.42;;
18249;SDS011;27980;52.126;5.572;2024-01-27T02:44:11;21.20;;;2.88;;
18249;SDS011;27980;52.126;5.572;2024-01-27T02:46:37;12.15;;;2.70;;
18249;SDS011;27980;52.126;5.572;2024-01-27T02:49:03;8.13;;;3.13;;
18249;SDS011;27980;52.126;5.572;2024-01-27T02:51:30;7.53;;;2.50;;
18249;SDS011;27980;52.126;5.572;2024-01-27T02:53:56;13.57;;;2.78;;
18249;SDS011;27980;52.126;5.572;2024-01-27T02:56:23;7.07;;;2.33;;
18249;SDS011;27980;52.126;5.572;2024-01-27T02:58:50;15.80;;;2.60;;
18249;SDS011;27980;52.126;5.572;2024-01-27T03:01:17;13.05;;;2.42;;
18249;SDS011;27980;52.126;5.572;2024-01-27T03:03:43;12.13;;;3.00;;
18249;SDS011;27980;52.126;5.572;2024-01-27T03:06:10;13.00;;;2.50;;
18249;SDS011;27980;52.126;5.572;2024-01-27T03:08:36;14.40;;;2.58;;
18249;SDS011;27980;52.126;5.572;2024-01-27T03:11:02;13.38;;;2.50;;
18249;SDS011;27980;52.126;5.572;2024-01-27T03:13:29;10.05;;;3.08;;
18249;SDS011;27980;52.126;5.572;2024-01-27T03:15:57;6.28;;;3.00;;
18249;SDS011;27980;52.126;5.572;2024-01-27T03:18:23;7.25;;;2.38;;
18249;SDS011;27980;52.126;5.572;2024-01-27T03:20:50;4.30;;;2.50;;
18249;SDS011;27980;52.126;5.572;2024-01-27T03:23:16;11.60;;;3.05;;
18249;SDS011;27980;52.126;5.572;2024-01-27T03:25:43;7.75;;;2.40;;
18249;SDS011;27980;52.126;5.572;2024-01-27T03:28:09;7.55;;;3.22;;
18249;SDS011;27980;52.126;5.572;2024-01-27T03:30:36;9.77;;;3.05;;
18249;SDS011;27980;52.126;5.572;2024-01-27T03:33:03;8.88;;;2.53;;
18249;SDS011;27980;52.126;5.572;2024-01-27T03:35:31;7.88;;;2.75;;
18249;SDS011;27980;52.126;5.572;2024-01-27T03:37:57;13.23;;;2.35;;
18249;SDS011;27980;52.126;5.572;2024-01-27T03:40:24;6.85;;;2.65;;
18249;SDS011;27980;52.126;5.572;2024-01-27T03:42:50;10.60;;;2.95;;
18249;SDS011;27980;52.126;5.572;2024-01-27T03:45:16;14.80;;;3.08;;
18249;SDS011;27980;52.126;5.572;2024-01-27T03:47:43;7.97;;;2.92;;
18249;SDS011;27980;52.126;5.572;2024-01-27T03:50:11;12.77;;;3.28;;
18249;SDS011;27980;52.126;5.572;2024-01-27T03:52:38;9.48;;;2.80;;
18249;SDS011;27980;52.126;5.572;2024-01-27T03:55:04;6.32;;;2.83;;
18249;SDS011;27980;52.126;5.572;2024-01-27T03:57:31;14.40;;;3.17;;
18249;SDS011;27980;52.126;5.572;2024-01-27T03:59:57;9.68;;;3.15;;
18249;SDS011;27980;52.126;5.572;2024-01-27T04:02:24;11.40;;;3.85;;
18249;SDS011;27980;52.126;5.572;2024-01-27T04:04:50;13.43;;;4.30;;
18249;SDS011;27980;52.126;5.572;2024-01-27T04:07:18;11.23;;;4.40;;
18249;SDS011;27980;52.126;5.572;2024-01-27T04:09:44;10.15;;;3.55;;
18249;SDS011;27980;52.126;5.572;2024-01-27T04:12:11;25.17;;;3.95;;
18249;SDS011;27980;52.126;5.572;2024-01-27T04:14:37;15.13;;;4.10;;
18249;SDS011;27980;52.126;5.572;2024-01-27T04:17:04;13.25;;;4.10;;
18249;SDS011;27980;52.126;5.572;2024-01-27T04:19:30;14.57;;;4.90;;
18249;SDS011;27980;52.126;5.572;2024-01-27T04:21:57;14.77;;;4.22;;
18249;SDS011;27980;52.126;5.572;2024-01-27T04:24:25;9.85;;;4.47;;
18249;SDS011;27980;52.126;5.572;2024-01-27T04:26:51;13.60;;;5.18;;
18249;SDS011;27980;52.126;5.572;2024-01-27T04:29:18;12.85;;;4.40;;
18249;SDS011;27980;52.126;5.572;2024-01-27T04:31:44;12.73;;;5.43;;
18249;SDS011;27980;52.126;5.572;2024-01-27T04:34:10;13.95;;;4.97;;
18249;SDS011;27980;52.126;5.572;2024-01-27T04:36:37;17.75;;;4.85;;
18249;SDS011;27980;52.126;5.572;2024-01-27T04:39:03;14.40;;;5.32;;
18249;SDS011;27980;52.126;5.572;2024-01-27T04:41:32;13.60;;;5.30;;
18249;SDS011;27980;52.126;5.572;2024-01-27T04:43:58;12.27;;;5.45;;
18249;SDS011;27980;52.126;5.572;2024-01-27T04:46:24;8.60;;;4.57;;
18249;SDS011;27980;52.126;5.572;2024-01-27T04:48:51;12.95;;;4.93;;
18249;SDS011;27980;52.126;5.572;2024-01-27T04:51:17;16.20;;;5.03;;
18249;SDS011;27980;52.126;5.572;2024-01-27T04:53:44;11.55;;;6.25;;
18249;SDS011;27980;52.126;5.572;2024-01-27T04:56:10;10.35;;;5.18;;
18249;SDS011;27980;52.126;5.572;2024-01-27T04:58:39;9.10;;;4.65;;
18249;SDS011;27980;52.126;5.572;2024-01-27T05:01:05;9.80;;;4.03;;
18249;SDS011;27980;52.126;5.572;2024-01-27T05:03:32;11.95;;;4.80;;
18249;SDS011;27980;52.126;5.572;2024-01-27T05:05:58;11.30;;;4.70;;
18249;SDS011;27980;52.126;5.572;2024-01-27T05:08:25;11.68;;;5.47;;
18249;SDS011;27980;52.126;5.572;2024-01-27T05:10:51;15.70;;;5.93;;
18249;SDS011;27980;52.126;5.572;2024-01-27T05:13:17;17.38;;;5.70;;
18249;SDS011;27980;52.126;5.572;2024-01-27T05:15:45;12.43;;;5.63;;
18249;SDS011;27980;52.126;5.572;2024-01-27T05:18:12;14.05;;;5.93;;
18249;SDS011;27980;52.126;5.572;2024-01-27T05:20:38;10.18;;;5.13;;
18249;SDS011;27980;52.126;5.572;2024-01-27T05:23:04;13.77;;;6.05;;
18249;SDS011;27980;52.126;5.572;2024-01-27T05:25:31;11.65;;;5.68;;
18249;SDS011;27980;52.126;5.572;2024-01-27T05:27:57;12.52;;;5.38;;
18249;SDS011;27980;52.126;5.572;2024-01-27T05:30:23;15.30;;;6.03;;
18249;SDS011;27980;52.126;5.572;2024-01-27T05:32:51;17.35;;;5.65;;
18249;SDS011;27980;52.126;5.572;2024-01-27T05:35:17;12.13;;;5.80;;
18249;SDS011;27980;52.126;5.572;2024-01-27T05:37:44;8.65;;;5.65;;
18249;SDS011;27980;52.126;5.572;2024-01-27T05:40:10;15.50;;;6.60;;
18249;SDS011;27980;52.126;5.572;2024-01-27T05:42:37;16.67;;;7.50;;
18249;SDS011;27980;52.126;5.572;2024-01-27T05:45:06;17.55;;;6.93;;
18249;SDS011;27980;52.126;5.572;2024-01-27T05:47:32;13.65;;;6.47;;
18249;SDS011;27980;52.126;5.572;2024-01-27T05:50:00;22.48;;;7.78;;
18249;SDS011;27980;52.126;5.572;2024-01-27T05:52:26;13.82;;;7.10;;
18249;SDS011;27980;52.126;5.572;2024-01-27T05:54:53;8.88;;;6.50;;
18249;SDS011;27980;52.126;5.572;2024-01-27T05:57:19;13.07;;;6.30;;
18249;SDS011;27980;52.126;5.572;2024-01-27T05:59:45;16.05;;;7.13;;
18249;SDS011;27980;52.126;5.572;2024-01-27T06:02:12;18.23;;;7.15;;
18249;SDS011;27980;52.126;5.572;2024-01-27T06:04:39;18.77;;;8.18;;
18249;SDS011;27980;52.126;5.572;2024-01-27T06:07:06;25.08;;;7.78;;
18249;SDS011;27980;52.126;5.572;2024-01-27T06:09:33;15.75;;;7.22;;
18249;SDS011;27980;52.126;5.572;2024-01-27T06:11:59;15.80;;;7.90;;
18249;SDS011;27980;52.126;5.572;2024-01-27T06:14:26;10.85;;;7.32;;
18249;SDS011;27980;52.126;5.572;2024-01-27T06:16:52;17.92;;;8.35;;
18249;SDS011;27980;52.126;5.572;2024-01-27T06:19:19;17.20;;;8.45;;
18249;SDS011;27980;52.126;5.572;2024-01-27T06:21:45;22.63;;;8.95;;
18249;SDS011;27980;52.126;5.572;2024-01-27T06:24:13;18.08;;;8.05;;
18249;SDS011;27980;52.126;5.572;2024-01-27T06:26:40;33.38;;;10.35;;
18249;SDS011;27980;52.126;5.572;2024-01-27T06:29:06;17.50;;;7.88;;
18249;SDS011;27980;52.126;5.572;2024-01-27T06:31:32;13.35;;;8.15;;
18249;SDS011;27980;52.126;5.572;2024-01-27T06:33:59;16.88;;;8.45;;
18249;SDS011;27980;52.126;5.572;2024-01-27T06:36:27;24.67;;;9.45;;
18249;SDS011;27980;52.126;5.572;2024-01-27T06:38:53;15.85;;;8.35;;
18249;SDS011;27980;52.126;5.572;2024-01-27T06:41:21;17.25;;;8.43;;
18249;SDS011;27980;52.126;5.572;2024-01-27T06:43:47;16.88;;;7.80;;
18249;SDS011;27980;52.126;5.572;2024-01-27T06:46:14;14.10;;;8.23;;
18249;SDS011;27980;52.126;5.572;2024-01-27T06:48:40;14.90;;;8.95;;
18249;SDS011;27980;52.126;5.572;2024-01-27T06:51:07;15.30;;;8.27;;
18249;SDS011;27980;52.126;5.572;2024-01-27T06:53:33;15.20;;;9.00;;
18249;SDS011;27980;52.126;5.572;2024-01-27T06:56:00;18.05;;;8.50;;
18249;SDS011;27980;52.126;5.572;2024-01-27T06:58:28;21.00;;;9.32;;
18249;SDS011;27980;52.126;5.572;2024-01-27T07:00:54;19.48;;;9.57;;
18249;SDS011;27980;52.126;5.572;2024-01-27T07:03:21;21.17;;;9.77;;
18249;SDS011;27980;52.126;5.572;2024-01-27T07:05:47;24.75;;;10.48;;
18249;SDS011;27980;52.126;5.572;2024-01-27T07:08:13;12.40;;;7.88;;
18249;SDS011;27980;52.126;5.572;2024-01-27T07:10:41;14.25;;;8.50;;
18249;SDS011;27980;52.126;5.572;2024-01-27T07:13:08;21.40;;;10.10;;
18249;SDS011;27980;52.126;5.572;2024-01-27T07:15:36;22.95;;;9.52;;
18249;SDS011;27980;52.126;5.572;2024-01-27T07:18:03;23.48;;;10.10;;
18249;SDS011;27980;52.126;5.572;2024-01-27T07:20:29;23.33;;;9.13;;
18249;SDS011;27980;52.126;5.572;2024-01-27T07:22:56;15.65;;;8.85;;
18249;SDS011;27980;52.126;5.572;2024-01-27T07:25:23;22.67;;;10.57;;
18249;SDS011;27980;52.126;5.572;2024-01-27T07:27:49;19.60;;;9.40;;
18249;SDS011;27980;52.126;5.572;2024-01-27T07:30:15;29.00;;;9.77;;
18249;SDS011;27980;52.126;5.572;2024-01-27T07:32:43;26.08;;;10.05;;
18249;SDS011;27980;52.126;5.572;2024-01-27T07:35:10;22.42;;;9.88;;
18249;SDS011;27980;52.126;5.572;2024-01-27T07:37:36;18.02;;;9.57;;
18249;SDS011;27980;52.126;5.572;2024-01-27T07:40:03;16.70;;;9.57;;
18249;SDS011;27980;52.126;5.572;2024-01-27T07:42:30;17.17;;;9.10;;
18249;SDS011;27980;52.126;5.572;2024-01-27T07:44:56;15.88;;;8.43;;
18249;SDS011;27980;52.126;5.572;2024-01-27T07:47:23;18.55;;;9.93;;
18249;SDS011;27980;52.126;5.572;2024-01-27T07:49:51;20.50;;;9.40;;
18249;SDS011;27980;52.126;5.572;2024-01-27T07:52:18;24.17;;;9.95;;
18249;SDS011;27980;52.126;5.572;2024-01-27T07:54:45;19.75;;;9.35;;
18249;SDS011;27980;52.126;5.572;2024-01-27T07:57:11;22.67;;;8.43;;
18249;SDS011;27980;52.126;5.572;2024-01-27T07:59:38;14.88;;;8.23;;
18249;SDS011;27980;52.126;5.572;2024-01-27T08:02:04;14.32;;;8.23;;
18249;SDS011;27980;52.126;5.572;2024-01-27T08:04:31;21.50;;;8.63;;
18249;SDS011;27980;52.126;5.572;2024-01-27T08:06:59;19.02;;;7.97;;
18249;SDS011;27980;52.126;5.572;2024-01-27T08:09:31;17.67;;;8.73;;
18249;SDS011;27980;52.126;5.572;2024-01-27T08:11:58;18.08;;;8.13;;
18249;SDS011;27980;52.126;5.572;2024-01-27T08:14:24;14.85;;;8.30;;
18249;SDS011;27980;52.126;5.572;2024-01-27T08:16:50;21.08;;;8.25;;
18249;SDS011;27980;52.126;5.572;2024-01-27T08:19:17;16.52;;;8.27;;
18249;SDS011;27980;52.126;5.572;2024-01-27T08:21:45;13.55;;;7.20;;
18249;SDS011;27980;52.126;5.572;2024-01-27T08:24:13;19.20;;;8.40;;
18249;SDS011;27980;52.126;5.572;2024-01-27T08:26:39;18.48;;;9.48;;
18249;SDS011;27980;52.126;5.572;2024-01-27T08:29:07;18.92;;;8.25;;
18249;SDS011;27980;52.126;5.572;2024-01-27T08:31:33;18.90;;;8.30;;
18249;SDS011;27980;52.126;5.572;2024-01-27T08:34:00;15.00;;;7.35;;
18249;SDS011;27980;52.126;5.572;2024-01-27T08:36:26;21.48;;;7.60;;
18249;SDS011;27980;52.126;5.572;2024-01-27T08:38:53;14.40;;;7.70;;
18249;SDS011;27980;52.126;5.572;2024-01-27T08:41:22;14.27;;;7.55;;
18249;SDS011;27980;52.126;5.572;2024-01-27T08:43:48;18.45;;;7.20;;
18249;SDS011;27980;52.126;5.572;2024-01-27T08:46:15;13.05;;;6.78;;
18249;SDS011;27980;52.126;5.572;2024-01-27T08:48:43;12.80;;;5.35;;
18249;SDS011;27980;52.126;5.572;2024-01-27T08:51:09;15.02;;;5.88;;
18249;SDS011;27980;52.126;5.572;2024-01-27T08:53:37;15.80;;;5.60;;
18249;SDS011;27980;52.126;5.572;2024-01-27T08:56:04;10.50;;;5.50;;
18249;SDS011;27980;52.126;5.572;2024-01-27T08:58:32;13.25;;;5.03;;
18249;SDS011;27980;52.126;5.572;2024-01-27T09:00:58;7.50;;;4.68;;
18249;SDS011;27980;52.126;5.572;2024-01-27T09:03:27;13.55;;;4.63;;
18249;SDS011;27980;52.126;5.572;2024-01-27T09:05:53;7.05;;;4.35;;
18249;SDS011;27980;52.126;5.572;2024-01-27T09:08:20;8.07;;;4.15;;
18249;SDS011;27980;52.126;5.572;2024-01-27T09:10:47;8.77;;;3.92;;
18249;SDS011;27980;52.126;5.572;2024-01-27T09:13:13;6.68;;;3.97;;
18249;SDS011;27980;52.126;5.572;2024-01-27T09:15:41;7.28;;;3.97;;
18249;SDS011;27980;52.126;5.572;2024-01-27T09:18:07;8.68;;;4.25;;
18249;SDS011;27980;52.126;5.572;2024-01-27T09:20:34;8.27;;;4.22;;
18249;SDS011;27980;52.126;5.572;2024-01-27T09:23:00;9.27;;;3.95;;
18249;SDS011;27980;52.126;5.572;2024-01-27T09:25:27;9.25;;;4.47;;
18249;SDS011;27980;52.126;5.572;2024-01-27T09:27:55;7.78;;;3.70;;
18249;SDS011;27980;52.126;5.572;2024-01-27T09:30:21;9.75;;;4.55;;
18249;SDS011;27980;52.126;5.572;2024-01-27T09:32:49;12.00;;;4.90;;
18249;SDS011;27980;52.126;5.572;2024-01-27T09:35:16;12.32;;;5.85;;
18249;SDS011;27980;52.126;5.572;2024-01-27T09:37:42;11.35;;;4.30;;
18249;SDS011;27980;52.126;5.572;2024-01-27T09:40:11;11.13;;;4.63;;
18249;SDS011;27980;52.126;5.572;2024-01-27T09:42:38;11.88;;;4.43;;
18249;SDS011;27980;52.126;5.572;2024-01-27T09:45:04;10.80;;;4.63;;
18249;SDS011;27980;52.126;5.572;2024-01-27T09:47:31;10.80;;;4.72;;
18249;SDS011;27980;52.126;5.572;2024-01-27T09:50:00;13.90;;;4.68;;
18249;SDS011;27980;52.126;5.572;2024-01-27T09:52:27;7.80;;;4.18;;
18249;SDS011;27980;52.126;5.572;2024-01-27T09:54:54;11.43;;;5.03;;
18249;SDS011;27980;52.126;5.572;2024-01-27T09:57:20;26.90;;;4.80;;
18249;SDS011;27980;52.126;5.572;2024-01-27T09:59:47;15.68;;;6.55;;
18249;SDS011;27980;52.126;5.572;2024-01-27T10:02:15;7.00;;;4.63;;
18249;SDS011;27980;52.126;5.572;2024-01-27T10:04:41;12.75;;;5.50;;
18249;SDS011;27980;52.126;5.572;2024-01-27T10:07:10;11.60;;;4.97;;
18249;SDS011;27980;52.126;5.572;2024-01-27T10:09:36;11.82;;;5.20;;
18249;SDS011;27980;52.126;5.572;2024-01-27T10:12:03;10.93;;;5.00;;
18249;SDS011;27980;52.126;5.572;2024-01-27T10:14:37;15.85;;;5.68;;
18249;SDS011;27980;52.126;5.572;2024-01-27T10:17:03;8.38;;;4.80;;
18249;SDS011;27980;52.126;5.572;2024-01-27T10:19:30;12.32;;;5.93;;
18249;SDS011;27980;52.126;5.572;2024-01-27T10:21:59;10.65;;;5.07;;
18249;SDS011;27980;52.126;5.572;2024-01-27T10:24:28;13.02;;;5.38;;
18249;SDS011;27980;52.126;5.572;2024-01-27T10:26:58;17.17;;;5.43;;
18249;SDS011;27980;52.126;5.572;2024-01-27T10:29:25;13.35;;;6.22;;
18249;SDS011;27980;52.126;5.572;2024-01-27T10:31:51;14.38;;;5.60;;
18249;SDS011;27980;52.126;5.572;2024-01-27T10:34:19;9.30;;;4.97;;
18249;SDS011;27980;52.126;5.572;2024-01-27T10:36:46;8.98;;;5.68;;
18249;SDS011;27980;52.126;5.572;2024-01-27T10:39:16;13.30;;;5.20;;
18249;SDS011;27980;52.126;5.572;2024-01-27T10:41:44;8.07;;;5.90;;
18249;SDS011;27980;52.126;5.572;2024-01-27T10:44:11;12.73;;;5.30;;
18249;SDS011;27980;52.126;5.572;2024-01-27T10:46:39;13.60;;;5.63;;
18249;SDS011;27980;52.126;5.572;2024-01-27T10:49:07;10.93;;;5.53;;
18249;SDS011;27980;52.126;5.572;2024-01-27T10:51:34;14.85;;;6.00;;
18249;SDS011;27980;52.126;5.572;2024-01-27T10:54:02;11.95;;;5.60;;
18249;SDS011;27980;52.126;5.572;2024-01-27T10:56:32;12.73;;;5.00;;
18249;SDS011;27980;52.126;5.572;2024-01-27T10:59:00;16.27;;;5.68;;
18249;SDS011;27980;52.126;5.572;2024-01-27T11:01:28;11.82;;;6.63;;
18249;SDS011;27980;52.126;5.572;2024-01-27T11:03:57;14.82;;;5.40;;
18249;SDS011;27980;52.126;5.572;2024-01-27T11:06:23;11.65;;;6.15;;
18249;SDS011;27980;52.126;5.572;2024-01-27T11:08:51;9.00;;;5.40;;
18249;SDS011;27980;52.126;5.572;2024-01-27T11:11:18;12.20;;;5.93;;
18249;SDS011;27980;52.126;5.572;2024-01-27T11:13:44;10.45;;;6.28;;
18249;SDS011;27980;52.126;5.572;2024-01-27T11:16:16;12.13;;;5.20;;
18249;SDS011;27980;52.126;5.572;2024-01-27T11:18:43;10.20;;;4.63;;
18249;SDS011;27980;52.126;5.572;2024-01-27T11:21:12;9.57;;;4.80;;
18249;SDS011;27980;52.126;5.572;2024-01-27T11:23:39;9.95;;;4.10;;
18249;SDS011;27980;52.126;5.572;2024-01-27T11:26:06;8.38;;;3.60;;
18249;SDS011;27980;52.126;5.572;2024-01-27T11:28:33;9.13;;;4.20;;
18249;SDS011;27980;52.126;5.572;2024-01-27T11:31:03;7.75;;;3.63;;
18249;SDS011;27980;52.126;5.572;2024-01-27T11:33:31;12.50;;;3.92;;
18249;SDS011;27980;52.126;5.572;2024-01-27T11:36:00;11.98;;;4.18;;
18249;SDS011;27980;52.126;5.572;2024-01-27T11:38:27;13.77;;;4.30;;
18249;SDS011;27980;52.126;5.572;2024-01-27T11:40:53;6.20;;;3.45;;
18249;SDS011;27980;52.126;5.572;2024-01-27T11:43:20;9.43;;;3.35;;
18249;SDS011;27980;52.126;5.572;2024-01-27T11:45:54;9.23;;;3.70;;
18249;SDS011;27980;52.126;5.572;2024-01-27T11:48:22;6.88;;;3.35;;
18249;SDS011;27980;52.126;5.572;2024-01-27T11:50:59;10.70;;;3.72;;
18249;SDS011;27980;52.126;5.572;2024-01-27T11:53:26;9.45;;;3.63;;
18249;SDS011;27980;52.126;5.572;2024-01-27T11:55:54;11.85;;;3.35;;
18249;SDS011;27980;52.126;5.572;2024-01-27T11:58:21;7.78;;;3.60;;
18249;SDS011;27980;52.126;5.572;2024-01-27T12:00:47;8.98;;;3.53;;
18249;SDS011;27980;52.126;5.572;2024-01-27T12:03:14;8.13;;;3.70;;
18249;SDS011;27980;52.126;5.572;2024-01-27T12:05:40;8.43;;;3.00;;
18249;SDS011;27980;52.126;5.572;2024-01-27T12:08:08;11.02;;;3.72;;
18249;SDS011;27980;52.126;5.572;2024-01-27T12:10:34;10.38;;;3.53;;
18249;SDS011;27980;52.126;5.572;2024-01-27T12:13:01;13.32;;;3.72;;
18249;SDS011;27980;52.126;5.572;2024-01-27T12:15:27;7.97;;;3.65;;
18249;SDS011;27980;52.126;5.572;2024-01-27T12:17:54;6.10;;;3.03;;
18249;SDS011;27980;52.126;5.572;2024-01-27T12:20:21;10.68;;;3.42;;
18249;SDS011;27980;52.126;5.572;2024-01-27T12:22:48;8.07;;;3.80;;
18249;SDS011;27980;52.126;5.572;2024-01-27T12:25:17;9.18;;;3.60;;
18249;SDS011;27980;52.126;5.572;2024-01-27T12:27:43;7.75;;;3.35;;
18249;SDS011;27980;52.126;5.572;2024-01-27T12:30:10;8.13;;;3.90;;
18249;SDS011;27980;52.126;5.572;2024-01-27T12:32:36;11.32;;;3.40;;
18249;SDS011;27980;52.126;5.572;2024-01-27T12:35:04;10.07;;;3.60;;
18249;SDS011;27980;52.126;5.572;2024-01-27T12:37:30;8.75;;;3.80;;
18249;SDS011;27980;52.126;5.572;2024-01-27T12:39:57;7.82;;;3.30;;
18249;SDS011;27980;52.126;5.572;2024-01-27T12:42:24;9.90;;;3.50;;
18249;SDS011;27980;52.126;5.572;2024-01-27T12:44:51;9.10;;;3.42;;
18249;SDS011;27980;52.126;5.572;2024-01-27T12:47:17;10.07;;;3.60;;
18249;SDS011;27980;52.126;5.572;2024-01-27T12:49:45;12.70;;;3.88;;
18249;SDS011;27980;52.126;5.572;2024-01-27T12:52:11;12.80;;;4.15;;
18249;SDS011;27980;52.126;5.572;2024-01-27T12:54:38;8.15;;;3.38;;
18249;SDS011;27980;52.126;5.572;2024-01-27T12:57:04;9.82;;;3.83;;
18249;SDS011;27980;52.126;5.572;2024-01-27T12:59:34;10.63;;;4.30;;
18249;SDS011;27980;52.126;5.572;2024-01-27T13:02:00;9.13;;;3.78;;
18249;SDS011;27980;52.126;5.572;2024-01-27T13:04:26;7.28;;;3.40;;
18249;SDS011;27980;52.126;5.572;2024-01-27T13:06:53;8.50;;;3.38;;
18249;SDS011;27980;52.126;5.572;2024-01-27T13:09:19;10.32;;;3.60;;
18249;SDS011;27980;52.126;5.572;2024-01-27T13:11:47;8.95;;;3.50;;
18249;SDS011;27980;52.126;5.572;2024-01-27T13:14:14;6.63;;;3.33;;
18249;SDS011;27980;52.126;5.572;2024-01-27T13:16:44;8.27;;;3.40;;
18249;SDS011;27980;52.126;5.572;2024-01-27T13:19:12;11.32;;;3.20;;
18249;SDS011;27980;52.126;5.572;2024-01-27T13:21:41;8.38;;;3.13;;
18249;SDS011;27980;52.126;5.572;2024-01-27T13:24:10;10.02;;;3.30;;
18249;SDS011;27980;52.126;5.572;2024-01-27T13:26:37;10.00;;;3.08;;
18249;SDS011;27980;52.126;5.572;2024-01-27T13:29:04;9.68;;;3.10;;
18249;SDS011;27980;52.126;5.572;2024-01-27T13:31:31;11.98;;;3.45;;
18249;SDS011;27980;52.126;5.572;2024-01-27T13:33:59;9.32;;;3.60;;
18249;SDS011;27980;52.126;5.572;2024-01-27T13:36:26;9.30;;;3.08;;
18249;SDS011;27980;52.126;5.572;2024-01-27T13:38:52;8.00;;;3.35;;
18249;SDS011;27980;52.126;5.572;2024-01-27T13:41:19;11.80;;;3.45;;
18249;SDS011;27980;52.126;5.572;2024-01-27T13:43:45;10.13;;;3.92;;
18249;SDS011;27980;52.126;5.572;2024-01-27T13:46:12;10.45;;;3.70;;
18249;SDS011;27980;52.126;5.572;2024-01-27T13:48:38;12.77;;;4.38;;
18249;SDS011;27980;52.126;5.572;2024-01-27T13:51:06;15.80;;;3.95;;
18249;SDS011;27980;52.126;5.572;2024-01-27T13:53:33;13.60;;;4.18;;
18249;SDS011;27980;52.126;5.572;2024-01-27T13:55:59;11.60;;;4.00;;
18249;SDS011;27980;52.126;5.572;2024-01-27T13:58:26;8.07;;;3.80;;
18249;SDS011;27980;52.126;5.572;2024-01-27T14:00:52;12.00;;;3.35;;
18249;SDS011;27980;52.126;5.572;2024-01-27T14:03:19;12.32;;;4.00;;
18249;SDS011;27980;52.126;5.572;2024-01-27T14:05:46;8.07;;;3.42;;
18249;SDS011;27980;52.126;5.572;2024-01-27T14:08:14;12.88;;;3.53;;
18249;SDS011;27980;52.126;5.572;2024-01-27T14:10:42;13.23;;;3.20;;
18249;SDS011;27980;52.126;5.572;2024-01-27T14:13:09;11.88;;;3.90;;
18249;SDS011;27980;52.126;5.572;2024-01-27T14:15:36;7.90;;;3.50;;
18249;SDS011;27980;52.126;5.572;2024-01-27T14:18:02;8.80;;;3.53;;
18249;SDS011;27980;52.126;5.572;2024-01-27T14:20:31;12.50;;;3.53;;
18249;SDS011;27980;52.126;5.572;2024-01-27T14:22:59;14.45;;;3.33;;
18249;SDS011;27980;52.126;5.572;2024-01-27T14:25:29;7.57;;;2.90;;
18249;SDS011;27980;52.126;5.572;2024-01-27T14:27:55;8.10;;;3.33;;
18249;SDS011;27980;52.126;5.572;2024-01-27T14:30:22;7.28;;;3.63;;
18249;SDS011;27980;52.126;5.572;2024-01-27T14:32:49;13.68;;;3.10;;
18249;SDS011;27980;52.126;5.572;2024-01-27T14:35:15;8.00;;;3.13;;